Time;durP1;ratioP1;P1;durP2;ratioP2;P2;SDS_P1;SDS_P2;PMS_P1;PMS_P2;Temp;Humidity;BMP_temperature;BMP_pressure;BME280_temperature;BME280_humidity;BME280_pressure;Samples;Min_cycle;Max_cycle;Signal;HPM_P1;HPM_P2
2024/01/30 00:00:46;;;;;;;15.32;8.05;;;;;;;;;;5052252;28;20053;-86
2024/01/30 00:03:13;;;;;;;11.65;7.40;;;;;;;;;;5050266;28;20052;-88
2024/01/30 00:05:39;;;;;;;8.93;6.32;;;;;;;;;;5049808;28;20053;-88
2024/01/30 00:08:06;;;;;;;10.57;6.82;;;;;;;;;;5064209;28;20071;-88
2024/01/30 00:10:33;;;;;;;13.52;7.10;;;;;;;;;;5050059;28;20414;-87
2024/01/30 00:12:59;;;;;;;12.07;6.63;;;;;;;;;;5049861;28;20115;-88
2024/01/30 00:15:26;;;;;;;11.80;8.00;;;;;;;;;;5049612;28;20127;-87
2024/01/30 00:17:53;;;;;;;11.15;7.13;;;;;;;;;;5033252;28;20057;-87
2024/01/30 00:20:20;;;;;;;10.38;6.95;;;;;;;;;;5034033;28;20128;-85
2024/01/30 00:22:47;;;;;;;11.65;7.43;;;;;;;;;;5053275;28;20098;-87
2024/01/30 00:25:14;;;;;;;12.50;6.80;;;;;;;;;;5051130;28;20083;-87
2024/01/30 00:27:41;;;;;;;11.73;7.22;;;;;;;;;;5049448;28;20099;-87
2024/01/30 00:30:08;;;;;;;12.07;6.75;;;;;;;;;;5062202;28;20510;-87
2024/01/30 00:32:35;;;;;;;14.60;7.43;;;;;;;;;;5049701;28;20795;-87
2024/01/30 00:35:01;;;;;;;15.07;7.90;;;;;;;;;;5049730;28;20155;-87
2024/01/30 00:37:28;;;;;;;15.90;8.07;;;;;;;;;;5050166;28;20084;-87
2024/01/30 00:39:55;;;;;;;11.35;7.63;;;;;;;;;;5034299;28;20091;-87
2024/01/30 00:42:23;;;;;;;12.75;6.88;;;;;;;;;;5050810;28;20577;-87
2024/01/30 00:44:50;;;;;;;10.40;6.88;;;;;;;;;;5054486;28;20057;-87
2024/01/30 00:47:16;;;;;;;12.27;7.53;;;;;;;;;;5038394;28;20053;-87
2024/01/30 00:49:43;;;;;;;13.88;7.35;;;;;;;;;;5053840;28;20057;-88
2024/01/30 00:52:10;;;;;;;14.57;8.38;;;;;;;;;;5055817;28;20060;-88
2024/01/30 00:54:37;;;;;;;13.32;7.30;;;;;;;;;;5035911;28;20050;-87
2024/01/30 00:57:03;;;;;;;11.60;7.25;;;;;;;;;;5049923;28;20053;-88
2024/01/30 00:59:30;;;;;;;13.32;7.88;;;;;;;;;;5056597;28;20048;-83
2024/01/30 01:01:57;;;;;;;13.48;7.95;;;;;;;;;;5058190;28;20495;-84
2024/01/30 01:04:24;;;;;;;13.20;7.40;;;;;;;;;;5041173;28;20449;-84
2024/01/30 01:06:50;;;;;;;13.32;7.43;;;;;;;;;;5058591;28;20067;-85
2024/01/30 01:09:17;;;;;;;13.45;7.90;;;;;;;;;;5060702;28;20517;-86
2024/01/30 01:11:44;;;;;;;13.65;8.07;;;;;;;;;;5060339;28;20060;-86
2024/01/30 01:14:10;;;;;;;12.48;7.38;;;;;;;;;;5044370;28;20053;-86
2024/01/30 01:16:37;;;;;;;11.90;6.82;;;;;;;;;;5044776;28;20107;-86
2024/01/30 01:19:04;;;;;;;11.75;7.57;;;;;;;;;;5059825;28;20121;-86
2024/01/30 01:21:31;;;;;;;11.65;6.82;;;;;;;;;;5060657;28;20473;-86
2024/01/30 01:23:57;;;;;;;11.88;7.35;;;;;;;;;;5041225;28;20049;-86
2024/01/30 01:26:24;;;;;;;12.00;7.00;;;;;;;;;;5039273;28;20072;-85
2024/01/30 01:28:51;;;;;;;13.40;7.18;;;;;;;;;;5038179;28;20053;-85
2024/01/30 01:31:17;;;;;;;12.00;6.90;;;;;;;;;;5066123;28;20103;-84
2024/01/30 01:33:45;;;;;;;11.25;7.30;;;;;;;;;;5048323;28;20056;-84
2024/01/30 01:36:13;;;;;;;10.85;6.70;;;;;;;;;;5063996;28;20049;-83
2024/01/30 01:38:40;;;;;;;11.63;6.88;;;;;;;;;;5046885;28;20063;-83
2024/01/30 01:41:06;;;;;;;11.05;6.85;;;;;;;;;;5062805;28;20052;-83
2024/01/30 01:43:33;;;;;;;10.85;6.65;;;;;;;;;;5042888;28;20111;-85
2024/01/30 01:45:59;;;;;;;10.18;6.75;;;;;;;;;;5057621;28;20052;-86
2024/01/30 01:48:26;;;;;;;18.35;7.85;;;;;;;;;;5040286;28;20083;-86
2024/01/30 01:50:53;;;;;;;11.02;7.53;;;;;;;;;;5056565;28;20049;-86
2024/01/30 01:53:20;;;;;;;11.57;6.50;;;;;;;;;;5040366;28;20057;-85
2024/01/30 01:55:47;;;;;;;9.75;6.32;;;;;;;;;;5033574;28;20052;-85
2024/01/30 01:58:14;;;;;;;12.77;7.07;;;;;;;;;;5057315;28;20499;-85
2024/01/30 02:00:41;;;;;;;10.07;6.32;;;;;;;;;;5073489;28;20045;-86
2024/01/30 02:03:10;;;;;;;9.77;7.05;;;;;;;;;;5040620;28;20048;-85
2024/01/30 02:05:36;;;;;;;12.30;7.05;;;;;;;;;;5060294;28;20056;-84
2024/01/30 02:08:03;;;;;;;10.30;6.88;;;;;;;;;;5052066;28;20053;-84
2024/01/30 02:10:30;;;;;;;9.25;6.45;;;;;;;;;;5041080;28;20513;-85
2024/01/30 02:12:57;;;;;;;9.70;6.93;;;;;;;;;;5040706;28;20057;-84
2024/01/30 02:15:23;;;;;;;11.50;7.07;;;;;;;;;;5044040;28;20084;-86
2024/01/30 02:17:50;;;;;;;10.57;6.72;;;;;;;;;;5041056;28;20057;-86
2024/01/30 02:20:17;;;;;;;9.90;6.65;;;;;;;;;;5032875;28;20128;-84
2024/01/30 02:22:43;;;;;;;8.85;6.22;;;;;;;;;;5040795;28;20045;-85
2024/01/30 02:25:10;;;;;;;9.77;6.82;;;;;;;;;;5057256;28;20064;-85
2024/01/30 02:27:37;;;;;;;11.30;7.13;;;;;;;;;;5057317;28;20053;-86
2024/01/30 02:30:04;;;;;;;12.48;7.05;;;;;;;;;;5057288;28;20112;-85
2024/01/30 02:32:30;;;;;;;14.13;7.50;;;;;;;;;;5056530;28;20091;-85
2024/01/30 02:34:57;;;;;;;9.90;6.80;;;;;;;;;;5056343;28;20049;-85
2024/01/30 02:37:24;;;;;;;10.55;6.43;;;;;;;;;;5041333;28;20065;-85
2024/01/30 02:39:50;;;;;;;10.57;6.40;;;;;;;;;;5041180;28;20063;-86
2024/01/30 02:42:17;;;;;;;10.45;6.60;;;;;;;;;;5041516;28;20143;-86
2024/01/30 02:44:44;;;;;;;10.68;6.53;;;;;;;;;;5054048;28;20056;-86
2024/01/30 02:47:10;;;;;;;9.60;6.20;;;;;;;;;;5041513;28;20088;-86
2024/01/30 02:49:37;;;;;;;9.73;6.38;;;;;;;;;;5057330;28;20052;-86
2024/01/30 02:52:04;;;;;;;11.85;6.53;;;;;;;;;;5057889;28;20059;-86
2024/01/30 02:54:30;;;;;;;9.75;6.72;;;;;;;;;;5057381;28;20067;-86
2024/01/30 02:56:57;;;;;;;9.32;6.07;;;;;;;;;;5040049;28;20045;-85
2024/01/30 02:59:23;;;;;;;8.82;6.43;;;;;;;;;;5056723;28;20121;-86
2024/01/30 03:01:50;;;;;;;11.85;6.40;;;;;;;;;;5058254;28;20136;-86
2024/01/30 03:04:17;;;;;;;9.65;6.60;;;;;;;;;;5039328;28;20048;-86
2024/01/30 03:06:47;;;;;;;8.73;6.35;;;;;;;;;;5038951;28;20144;-85
2024/01/30 03:09:16;;;;;;;10.55;6.55;;;;;;;;;;5055690;28;20049;-85
2024/01/30 03:11:42;;;;;;;10.93;6.78;;;;;;;;;;5038739;28;20079;-84
2024/01/30 03:14:10;;;;;;;9.32;6.22;;;;;;;;;;5055691;28;20063;-84
2024/01/30 03:16:37;;;;;;;12.15;6.55;;;;;;;;;;5055845;28;20076;-84
2024/01/30 03:19:07;;;;;;;10.80;7.00;;;;;;;;;;5056076;28;20076;-85
2024/01/30 03:21:34;;;;;;;9.18;6.25;;;;;;;;;;5055815;28;20548;-85
2024/01/30 03:24:01;;;;;;;8.27;6.13;;;;;;;;;;5057844;28;20407;-85
2024/01/30 03:26:27;;;;;;;12.55;7.45;;;;;;;;;;5039916;28;20086;-86
2024/01/30 03:28:54;;;;;;;8.38;6.00;;;;;;;;;;5055755;28;20116;-85
2024/01/30 03:31:20;;;;;;;9.65;7.03;;;;;;;;;;5056221;28;20076;-85
2024/01/30 03:33:47;;;;;;;9.35;5.97;;;;;;;;;;5035742;28;20079;-84
2024/01/30 03:36:15;;;;;;;9.77;5.90;;;;;;;;;;5039827;28;20084;-85
2024/01/30 03:38:41;;;;;;;10.65;7.00;;;;;;;;;;5039102;28;20131;-85
2024/01/30 03:41:09;;;;;;;8.77;6.03;;;;;;;;;;5056263;28;20073;-85
2024/01/30 03:43:36;;;;;;;10.60;5.88;;;;;;;;;;5038572;28;20045;-86
2024/01/30 03:46:02;;;;;;;13.82;6.57;;;;;;;;;;5055962;28;20080;-86
2024/01/30 03:48:29;;;;;;;9.02;6.07;;;;;;;;;;5056520;28;20418;-84
2024/01/30 03:50:56;;;;;;;9.82;5.55;;;;;;;;;;5062289;28;20094;-86
2024/01/30 03:53:22;;;;;;;9.35;6.13;;;;;;;;;;5054549;28;20060;-87
2024/01/30 03:55:49;;;;;;;9.07;6.22;;;;;;;;;;5057974;28;20044;-87
2024/01/30 03:58:16;;;;;;;8.43;5.88;;;;;;;;;;5041816;28;20040;-88
2024/01/30 04:00:43;;;;;;;11.40;6.38;;;;;;;;;;5041852;28;20068;-87
2024/01/30 04:03:09;;;;;;;13.88;6.68;;;;;;;;;;5043840;28;20029;-86
2024/01/30 04:05:36;;;;;;;10.93;6.13;;;;;;;;;;5074054;28;20080;-84
2024/01/30 04:08:03;;;;;;;8.48;5.97;;;;;;;;;;5049267;28;20042;-85
2024/01/30 04:10:30;;;;;;;8.85;5.72;;;;;;;;;;5068010;28;20076;-84
2024/01/30 04:12:56;;;;;;;10.18;6.38;;;;;;;;;;5060572;28;20104;-84
2024/01/30 04:15:23;;;;;;;11.27;6.63;;;;;;;;;;5068461;28;20322;-84
2024/01/30 04:17:49;;;;;;;8.98;6.35;;;;;;;;;;5076804;28;20033;-86
2024/01/30 04:20:16;;;;;;;11.90;6.55;;;;;;;;;;5055565;28;20119;-84
2024/01/30 04:22:46;;;;;;;10.02;6.00;;;;;;;;;;5037242;28;20128;-86
2024/01/30 04:25:13;;;;;;;7.93;5.53;;;;;;;;;;5074041;28;20053;-84
2024/01/30 04:27:39;;;;;;;9.48;6.15;;;;;;;;;;5068420;28;20066;-84
2024/01/30 04:30:06;;;;;;;10.05;6.72;;;;;;;;;;5055514;28;20052;-85
2024/01/30 04:32:33;;;;;;;6.72;5.50;;;;;;;;;;5056458;28;20056;-85
2024/01/30 04:35:00;;;;;;;7.95;6.32;;;;;;;;;;5051903;28;20056;-85
2024/01/30 04:37:27;;;;;;;9.35;6.40;;;;;;;;;;5037212;28;20135;-85
2024/01/30 04:39:54;;;;;;;9.25;6.30;;;;;;;;;;5036978;28;20113;-86
2024/01/30 04:42:20;;;;;;;10.98;6.25;;;;;;;;;;5054828;28;20477;-85
2024/01/30 04:44:47;;;;;;;10.68;6.70;;;;;;;;;;5053445;28;20103;-86
2024/01/30 04:47:14;;;;;;;8.00;5.55;;;;;;;;;;5054064;28;20522;-86
2024/01/30 04:49:40;;;;;;;10.95;6.47;;;;;;;;;;5054050;28;20130;-86
2024/01/30 04:52:07;;;;;;;8.10;5.93;;;;;;;;;;5038757;28;20045;-86
2024/01/30 04:54:34;;;;;;;35.75;21.13;;;;;;;;;;5054657;28;20056;-88
2024/01/30 04:57:01;;;;;;;20.92;12.95;;;;;;;;;;5054659;28;20570;-88
2024/01/30 04:59:28;;;;;;;120.25;53.90;;;;;;;;;;5037167;28;20103;-88
2024/01/30 05:01:55;;;;;;;35.63;23.05;;;;;;;;;;5043072;28;20060;-87
2024/01/30 05:04:22;;;;;;;14.60;9.88;;;;;;;;;;5052078;28;20045;-88
2024/01/30 05:06:49;;;;;;;10.48;6.80;;;;;;;;;;5037926;28;20048;-87
2024/01/30 05:09:15;;;;;;;8.82;6.45;;;;;;;;;;5054478;28;20060;-87
2024/01/30 05:11:42;;;;;;;9.57;6.53;;;;;;;;;;5054547;28;20068;-88
2024/01/30 05:14:09;;;;;;;11.73;6.70;;;;;;;;;;5053841;28;20061;-88
2024/01/30 05:16:36;;;;;;;11.73;6.95;;;;;;;;;;5052301;28;20107;-87
2024/01/30 05:19:02;;;;;;;8.80;6.38;;;;;;;;;;5052299;28;20521;-87
2024/01/30 05:21:29;;;;;;;10.70;5.97;;;;;;;;;;5035197;28;20110;-87
2024/01/30 05:23:56;;;;;;;8.73;6.28;;;;;;;;;;5049553;28;20049;-87
2024/01/30 05:26:22;;;;;;;8.57;5.40;;;;;;;;;;5049732;28;20092;-87
2024/01/30 05:28:49;;;;;;;11.40;6.45;;;;;;;;;;5054818;28;20057;-87
2024/01/30 05:31:16;;;;;;;10.60;6.70;;;;;;;;;;5051645;28;20132;-87
2024/01/30 05:33:42;;;;;;;8.48;5.65;;;;;;;;;;5051872;28;20084;-87
2024/01/30 05:36:11;;;;;;;8.52;6.43;;;;;;;;;;5035617;28;20781;-87
2024/01/30 05:38:38;;;;;;;11.35;6.70;;;;;;;;;;5067430;28;20452;-86
2024/01/30 05:41:04;;;;;;;10.45;6.80;;;;;;;;;;5053323;28;20518;-86
2024/01/30 05:43:31;;;;;;;14.90;7.10;;;;;;;;;;5044760;28;20415;-86
2024/01/30 05:45:57;;;;;;;12.13;7.00;;;;;;;;;;5053659;28;20528;-86
2024/01/30 05:48:24;;;;;;;12.18;8.32;;;;;;;;;;5052906;28;20088;-87
2024/01/30 05:50:51;;;;;;;11.85;7.90;;;;;;;;;;5053254;28;20141;-86
2024/01/30 05:53:17;;;;;;;11.30;7.22;;;;;;;;;;5056194;28;20084;-83
2024/01/30 05:55:44;;;;;;;12.25;7.25;;;;;;;;;;5055383;28;20551;-82
2024/01/30 05:58:11;;;;;;;14.38;9.20;;;;;;;;;;5049634;28;20080;-87
2024/01/30 06:00:37;;;;;;;15.32;9.23;;;;;;;;;;5040009;28;20049;-87
2024/01/30 06:03:04;;;;;;;19.13;9.00;;;;;;;;;;5054819;28;20053;-85
2024/01/30 06:05:31;;;;;;;21.90;9.90;;;;;;;;;;5061445;28;20114;-86
2024/01/30 06:07:57;;;;;;;18.10;8.82;;;;;;;;;;5041691;28;20067;-86
2024/01/30 06:10:24;;;;;;;12.05;7.00;;;;;;;;;;5044549;28;20063;-87
2024/01/30 06:12:51;;;;;;;13.60;6.85;;;;;;;;;;5068797;28;20075;-85
2024/01/30 06:15:17;;;;;;;11.07;6.78;;;;;;;;;;5064739;28;20515;-87
2024/01/30 06:17:44;;;;;;;9.00;6.03;;;;;;;;;;5050617;28;20083;-87
2024/01/30 06:20:11;;;;;;;10.63;6.82;;;;;;;;;;5037425;28;20056;-86
2024/01/30 06:22:40;;;;;;;9.10;6.53;;;;;;;;;;5031693;28;20434;-85
2024/01/30 06:25:07;;;;;;;13.15;6.88;;;;;;;;;;5050562;28;20122;-85
2024/01/30 06:27:34;;;;;;;9.23;6.30;;;;;;;;;;5035941;28;20040;-86
2024/01/30 06:30:01;;;;;;;11.15;6.65;;;;;;;;;;5050656;28;20070;-86
2024/01/30 06:32:28;;;;;;;9.30;6.43;;;;;;;;;;5038724;28;20135;-86
2024/01/30 06:34:55;;;;;;;9.13;5.72;;;;;;;;;;5045366;28;20084;-86
2024/01/30 06:37:21;;;;;;;8.65;5.63;;;;;;;;;;5052041;28;20057;-86
2024/01/30 06:39:48;;;;;;;9.48;6.80;;;;;;;;;;5037591;28;20045;-86
2024/01/30 06:42:15;;;;;;;11.18;6.82;;;;;;;;;;5053127;28;20057;-86
2024/01/30 06:44:42;;;;;;;10.05;6.57;;;;;;;;;;5037927;28;20104;-86
2024/01/30 06:47:09;;;;;;;13.50;6.72;;;;;;;;;;5055716;28;20088;-85
2024/01/30 06:49:38;;;;;;;12.55;6.68;;;;;;;;;;5043150;28;20136;-86
2024/01/30 06:52:05;;;;;;;11.98;7.18;;;;;;;;;;5044217;28;20057;-86
2024/01/30 06:54:32;;;;;;;11.23;6.95;;;;;;;;;;5043555;28;20052;-86
2024/01/30 06:56:59;;;;;;;10.75;7.20;;;;;;;;;;5038677;28;20059;-87
2024/01/30 06:59:25;;;;;;;10.50;6.70;;;;;;;;;;5052603;28;20056;-86
2024/01/30 07:01:52;;;;;;;12.18;7.13;;;;;;;;;;5052454;28;20479;-86
2024/01/30 07:04:19;;;;;;;10.88;7.38;;;;;;;;;;5052766;28;20041;-86
2024/01/30 07:06:46;;;;;;;12.32;7.22;;;;;;;;;;5053650;28;20056;-86
2024/01/30 07:09:13;;;;;;;11.43;7.82;;;;;;;;;;5052920;28;20084;-86
2024/01/30 07:11:40;;;;;;;13.55;6.97;;;;;;;;;;5051896;28;20065;-85
2024/01/30 07:14:07;;;;;;;13.30;7.75;;;;;;;;;;5030921;28;20053;-85
2024/01/30 07:16:34;;;;;;;10.32;6.93;;;;;;;;;;5051048;28;20102;-86
2024/01/30 07:19:00;;;;;;;11.45;7.00;;;;;;;;;;5031559;28;20076;-86
2024/01/30 07:21:28;;;;;;;11.25;6.40;;;;;;;;;;5035895;28;20052;-88
2024/01/30 07:23:55;;;;;;;13.15;7.60;;;;;;;;;;5051281;28;20549;-86
2024/01/30 07:26:22;;;;;;;12.40;7.88;;;;;;;;;;5053185;28;20048;-81
2024/01/30 07:28:50;;;;;;;12.63;7.47;;;;;;;;;;5054239;28;20079;-80
2024/01/30 07:31:16;;;;;;;12.88;7.43;;;;;;;;;;5049657;28;20049;-80
2024/01/30 07:33:43;;;;;;;11.10;6.40;;;;;;;;;;5036407;28;20053;-79
2024/01/30 07:36:10;;;;;;;15.63;7.65;;;;;;;;;;5051902;28;20061;-82
2024/01/30 07:38:37;;;;;;;15.35;7.55;;;;;;;;;;5031217;28;20049;-80
2024/01/30 07:41:03;;;;;;;14.63;7.53;;;;;;;;;;5047266;28;20506;-79
2024/01/30 07:43:30;;;;;;;11.05;7.60;;;;;;;;;;5034708;28;20132;-78
2024/01/30 07:45:57;;;;;;;15.18;7.50;;;;;;;;;;5033744;28;20053;-79
2024/01/30 07:48:23;;;;;;;10.35;7.28;;;;;;;;;;5050615;28;20049;-77
2024/01/30 07:50:50;;;;;;;12.13;8.30;;;;;;;;;;5051694;28;20084;-78
2024/01/30 07:53:17;;;;;;;11.65;7.78;;;;;;;;;;5052340;28;20048;-77
2024/01/30 07:55:46;;;;;;;12.75;7.60;;;;;;;;;;5038036;28;20056;-78
2024/01/30 07:58:13;;;;;;;10.63;7.22;;;;;;;;;;5054958;28;20063;-78
2024/01/30 08:00:40;;;;;;;11.50;7.32;;;;;;;;;;5054794;28;20063;-78
2024/01/30 08:03:06;;;;;;;11.60;6.55;;;;;;;;;;5039144;28;20518;-78
2024/01/30 08:05:33;;;;;;;12.15;6.85;;;;;;;;;;5054703;28;20049;-77
2024/01/30 08:08:00;;;;;;;12.52;7.07;;;;;;;;;;5054531;28;20049;-78
2024/01/30 08:10:26;;;;;;;11.20;7.50;;;;;;;;;;5037656;28;20133;-77
2024/01/30 08:12:53;;;;;;;13.00;7.13;;;;;;;;;;5056623;28;20106;-78
2024/01/30 08:15:20;;;;;;;11.75;7.28;;;;;;;;;;5054304;28;20056;-78
2024/01/30 08:17:46;;;;;;;11.85;7.20;;;;;;;;;;5054448;28;20049;-77
2024/01/30 08:20:13;;;;;;;8.70;6.68;;;;;;;;;;5054649;28;20049;-80
2024/01/30 08:22:40;;;;;;;12.10;7.10;;;;;;;;;;5036756;28;20643;-78
2024/01/30 08:25:07;;;;;;;18.00;7.15;;;;;;;;;;5039477;28;20053;-81
2024/01/30 08:27:35;;;;;;;11.23;6.43;;;;;;;;;;5053514;28;20081;-81
2024/01/30 08:30:02;;;;;;;12.98;7.43;;;;;;;;;;5046768;28;20088;-82
2024/01/30 08:32:29;;;;;;;10.48;6.82;;;;;;;;;;5035657;28;20060;-83
2024/01/30 08:34:56;;;;;;;8.93;6.30;;;;;;;;;;5056384;28;20053;-83
2024/01/30 08:37:24;;;;;;;11.70;6.38;;;;;;;;;;5050781;28;20590;-82
2024/01/30 08:39:50;;;;;;;9.98;6.68;;;;;;;;;;5039040;28;20057;-82
2024/01/30 08:42:22;;;;;;;10.45;6.80;;;;;;;;;;5061650;28;20045;-86
2024/01/30 08:44:51;;;;;;;9.50;6.78;;;;;;;;;;5044009;28;20116;-84
2024/01/30 08:47:18;;;;;;;11.95;6.75;;;;;;;;;;5057813;28;20224;-85
2024/01/30 08:49:45;;;;;;;10.55;6.60;;;;;;;;;;5055201;28;20570;-76
2024/01/30 08:52:12;;;;;;;10.63;7.57;;;;;;;;;;5050140;28;20049;-78
2024/01/30 08:54:39;;;;;;;12.10;6.82;;;;;;;;;;5038978;28;20139;-81
2024/01/30 08:57:05;;;;;;;10.43;6.70;;;;;;;;;;5054894;28;20087;-80
2024/01/30 08:59:32;;;;;;;11.10;7.07;;;;;;;;;;5037515;28;20049;-78
2024/01/30 09:01:59;;;;;;;10.32;6.38;;;;;;;;;;5029932;28;20635;-82
2024/01/30 09:04:38;;;;;;;9.10;5.97;;;;;;;;;;5048822;28;20067;-80
2024/01/30 09:07:08;;;;;;;10.07;5.88;;;;;;;;;;5049826;28;20053;-80
2024/01/30 09:09:37;;;;;;;9.20;6.10;;;;;;;;;;5040594;28;20080;-81
2024/01/30 09:12:07;;;;;;;9.43;6.05;;;;;;;;;;5045508;28;20105;-81
2024/01/30 09:14:33;;;;;;;11.30;6.35;;;;;;;;;;5041180;28;20045;-79
2024/01/30 09:17:00;;;;;;;10.15;6.45;;;;;;;;;;5059494;28;20045;-81
2024/01/30 09:19:27;;;;;;;11.13;6.38;;;;;;;;;;5042486;28;20495;-81
2024/01/30 09:21:54;;;;;;;9.18;6.38;;;;;;;;;;5059877;28;20080;-81
2024/01/30 09:24:24;;;;;;;8.68;7.05;;;;;;;;;;5061627;28;20052;-81
2024/01/30 09:26:50;;;;;;;14.25;6.75;;;;;;;;;;5060883;28;20061;-77
2024/01/30 09:29:17;;;;;;;10.10;6.00;;;;;;;;;;5052422;28;20049;-79
2024/01/30 09:31:45;;;;;;;11.00;6.13;;;;;;;;;;5054688;28;20053;-80
2024/01/30 09:34:12;;;;;;;9.30;6.53;;;;;;;;;;5055185;28;20080;-79
2024/01/30 09:36:39;;;;;;;10.93;6.70;;;;;;;;;;5052468;28;20092;-80
2024/01/30 09:39:07;;;;;;;12.40;7.80;;;;;;;;;;5072981;28;20057;-81
2024/01/30 09:41:34;;;;;;;11.68;6.43;;;;;;;;;;5048408;28;20519;-80
2024/01/30 09:44:02;;;;;;;9.43;5.95;;;;;;;;;;5059952;28;20348;-80
2024/01/30 09:46:29;;;;;;;8.32;5.63;;;;;;;;;;5042725;28;20075;-81
2024/01/30 09:48:56;;;;;;;9.07;6.47;;;;;;;;;;5039723;28;20095;-81
2024/01/30 09:51:24;;;;;;;10.40;6.18;;;;;;;;;;5043267;28;20079;-80
2024/01/30 09:53:51;;;;;;;10.88;6.72;;;;;;;;;;5043231;28;20063;-80
2024/01/30 09:56:18;;;;;;;10.57;5.63;;;;;;;;;;5040385;28;20102;-80
2024/01/30 09:58:45;;;;;;;8.13;5.88;;;;;;;;;;5037748;28;20475;-80
2024/01/30 10:01:11;;;;;;;7.93;5.93;;;;;;;;;;5051992;28;20057;-78
2024/01/30 10:03:38;;;;;;;10.73;5.65;;;;;;;;;;5041434;28;20045;-78
2024/01/30 10:06:06;;;;;;;10.32;6.38;;;;;;;;;;5040594;28;20056;-78
2024/01/30 10:08:33;;;;;;;7.97;5.70;;;;;;;;;;5052935;28;20135;-80
2024/01/30 10:11:00;;;;;;;8.57;5.75;;;;;;;;;;5050684;28;20063;-79
2024/01/30 10:13:26;;;;;;;11.18;6.50;;;;;;;;;;5039318;28;20560;-81
2024/01/30 10:15:53;;;;;;;18.85;5.90;;;;;;;;;;5049426;28;20136;-79
2024/01/30 10:18:20;;;;;;;10.52;6.53;;;;;;;;;;5054328;28;20080;-79
2024/01/30 10:20:46;;;;;;;9.13;5.65;;;;;;;;;;5053665;28;20051;-79
2024/01/30 10:23:13;;;;;;;7.93;5.68;;;;;;;;;;5056055;28;20087;-80
2024/01/30 10:25:40;;;;;;;7.97;5.10;;;;;;;;;;5038686;28;20487;-79
2024/01/30 10:28:07;;;;;;;7.57;5.45;;;;;;;;;;5037588;28;20107;-78
2024/01/30 10:30:33;;;;;;;10.23;5.97;;;;;;;;;;5045249;28;20049;-80
2024/01/30 10:33:00;;;;;;;9.52;5.50;;;;;;;;;;5055107;28;20060;-81
2024/01/30 10:35:27;;;;;;;8.93;5.10;;;;;;;;;;5042632;28;20053;-79
2024/01/30 10:37:53;;;;;;;9.52;5.57;;;;;;;;;;5042407;28;20057;-77
2024/01/30 10:40:20;;;;;;;8.10;4.75;;;;;;;;;;5035752;28;20163;-77
2024/01/30 10:42:47;;;;;;;10.52;5.63;;;;;;;;;;5050336;28;20135;-77
2024/01/30 10:45:15;;;;;;;7.78;5.50;;;;;;;;;;5037031;28;20075;-77
2024/01/30 10:47:49;;;;;;;12.73;5.78;;;;;;;;;;5049087;28;20495;-78
2024/01/30 10:50:16;;;;;;;8.68;5.25;;;;;;;;;;5050991;28;20053;-78
2024/01/30 10:52:43;;;;;;;7.63;5.55;;;;;;;;;;5034977;28;20052;-77
2024/01/30 10:55:10;;;;;;;9.02;5.45;;;;;;;;;;5052427;28;20663;-78
2024/01/30 10:57:37;;;;;;;9.27;5.15;;;;;;;;;;5052308;28;20049;-78
2024/01/30 11:00:15;;;;;;;9.43;5.95;;;;;;;;;;5052228;28;20294;-77
2024/01/30 11:02:45;;;;;;;8.65;5.53;;;;;;;;;;5036586;28;20455;-78
2024/01/30 11:05:12;;;;;;;7.35;5.25;;;;;;;;;;5032313;28;20127;-77
2024/01/30 11:07:41;;;;;;;9.38;5.72;;;;;;;;;;5049290;28;20052;-77
2024/01/30 11:10:09;;;;;;;8.80;5.45;;;;;;;;;;5052324;28;20052;-81
2024/01/30 11:12:40;;;;;;;10.15;5.75;;;;;;;;;;5052580;28;20140;-76
2024/01/30 11:15:08;;;;;;;7.80;5.72;;;;;;;;;;5036619;28;20083;-78
2024/01/30 11:17:45;;;;;;;6.47;5.28;;;;;;;;;;5032596;28;20067;-77
2024/01/30 11:20:18;;;;;;;7.20;5.20;;;;;;;;;;5033469;28;20072;-78
2024/01/30 11:22:50;;;;;;;8.38;5.80;;;;;;;;;;5032491;28;20491;-77
2024/01/30 11:25:17;;;;;;;6.85;5.75;;;;;;;;;;5031274;28;20067;-77
2024/01/30 11:27:44;;;;;;;10.70;5.95;;;;;;;;;;5032738;28;20052;-77
2024/01/30 11:30:21;;;;;;;12.80;8.23;;;;;;;;;;5032600;28;20065;-78
2024/01/30 11:33:08;;;;;;;15.30;7.47;;;;;;;;;;5025098;28;20054;-84
2024/01/30 11:35:36;;;;;;;15.18;6.97;;;;;;;;;;5062594;28;20045;-80
2024/01/30 11:38:03;;;;;;;12.82;7.22;;;;;;;;;;5067946;28;20569;-78
2024/01/30 11:40:30;;;;;;;9.02;6.72;;;;;;;;;;5035560;28;20088;-80
2024/01/30 11:42:58;;;;;;;10.90;6.72;;;;;;;;;;5034545;28;20053;-80
2024/01/30 11:45:24;;;;;;;13.82;7.63;;;;;;;;;;5034228;28;20056;-80
2024/01/30 11:47:51;;;;;;;12.82;7.80;;;;;;;;;;5035482;28;20414;-79
2024/01/30 11:50:18;;;;;;;15.18;9.25;;;;;;;;;;5034938;28;20076;-80
2024/01/30 11:52:45;;;;;;;12.82;8.45;;;;;;;;;;5051896;28;20094;-80
2024/01/30 11:55:11;;;;;;;14.80;9.35;;;;;;;;;;5032034;28;20131;-82
2024/01/30 11:57:38;;;;;;;14.85;8.93;;;;;;;;;;5047773;28;20049;-82
2024/01/30 12:00:10;;;;;;;15.77;8.82;;;;;;;;;;5036767;28;20506;-84
2024/01/30 12:02:37;;;;;;;16.42;8.68;;;;;;;;;;5040192;28;20033;-84
2024/01/30 12:05:06;;;;;;;14.35;9.23;;;;;;;;;;5050758;28;20053;-80
2024/01/30 12:07:33;;;;;;;16.02;10.05;;;;;;;;;;5038624;28;20049;-82
2024/01/30 12:10:00;;;;;;;12.23;9.13;;;;;;;;;;5074894;28;20052;-82
2024/01/30 12:12:27;;;;;;;11.25;8.10;;;;;;;;;;5059654;28;20076;-83
2024/01/30 12:14:54;;;;;;;13.40;8.43;;;;;;;;;;5057497;28;20065;-82
2024/01/30 12:17:39;;;;;;;14.25;8.82;;;;;;;;;;5056634;28;20057;-82
2024/01/30 12:20:09;;;;;;;21.30;10.25;;;;;;;;;;5053072;28;20053;-79
2024/01/30 12:22:40;;;;;;;29.52;12.10;;;;;;;;;;5050213;28;20045;-80
2024/01/30 12:25:10;;;;;;;13.30;8.38;;;;;;;;;;5055031;28;20060;-81
2024/01/30 12:27:37;;;;;;;16.60;9.77;;;;;;;;;;5053921;28;20048;-81
2024/01/30 12:30:08;;;;;;;12.55;9.07;;;;;;;;;;5055735;28;20098;-81
2024/01/30 12:32:39;;;;;;;16.23;8.48;;;;;;;;;;5076198;28;20076;-80
2024/01/30 12:35:14;;;;;;;13.80;8.55;;;;;;;;;;5042965;28;20155;-81
2024/01/30 12:37:41;;;;;;;13.40;8.23;;;;;;;;;;5048714;28;20111;-80
2024/01/30 12:40:08;;;;;;;14.35;10.32;;;;;;;;;;5076421;28;20499;-81
2024/01/30 12:42:35;;;;;;;19.15;7.15;;;;;;;;;;5058315;28;20044;-82
2024/01/30 12:45:02;;;;;;;12.25;7.70;;;;;;;;;;5060583;28;20506;-81
2024/01/30 12:47:29;;;;;;;11.35;7.93;;;;;;;;;;5061628;28;20045;-81
2024/01/30 12:49:56;;;;;;;11.82;8.38;;;;;;;;;;5059923;28;20061;-81
2024/01/30 12:52:23;;;;;;;17.00;7.60;;;;;;;;;;5037436;28;20084;-81
2024/01/30 12:54:50;;;;;;;11.57;7.65;;;;;;;;;;5060247;28;20059;-80
2024/01/30 12:57:17;;;;;;;11.43;7.45;;;;;;;;;;5060017;28;20055;-80
2024/01/30 12:59:44;;;;;;;13.60;8.35;;;;;;;;;;5053651;28;20053;-80
2024/01/30 13:02:12;;;;;;;9.43;7.30;;;;;;;;;;5042265;28;20056;-79
2024/01/30 13:04:39;;;;;;;13.73;9.20;;;;;;;;;;5058984;28;20083;-80
2024/01/30 13:07:06;;;;;;;9.52;7.10;;;;;;;;;;5042418;28;20053;-80
2024/01/30 13:09:33;;;;;;;10.80;7.43;;;;;;;;;;5059457;28;20045;-79
2024/01/30 13:12:02;;;;;;;9.32;6.97;;;;;;;;;;5060476;28;20128;-79
2024/01/30 13:14:29;;;;;;;13.07;7.47;;;;;;;;;;5057014;28;20065;-79
2024/01/30 13:16:55;;;;;;;9.77;7.55;;;;;;;;;;5051645;28;20152;-79
2024/01/30 13:19:22;;;;;;;8.85;6.78;;;;;;;;;;5058770;28;20068;-79
2024/01/30 13:21:49;;;;;;;9.82;6.65;;;;;;;;;;5042798;28;20073;-80
2024/01/30 13:24:15;;;;;;;11.60;7.05;;;;;;;;;;5057736;28;20091;-78
2024/01/30 13:26:42;;;;;;;12.50;7.22;;;;;;;;;;5060736;28;20049;-79
2024/01/30 13:29:09;;;;;;;10.23;7.20;;;;;;;;;;5039877;28;20046;-79
2024/01/30 13:31:35;;;;;;;12.95;7.78;;;;;;;;;;5056409;28;20140;-78
2024/01/30 13:34:02;;;;;;;12.73;6.63;;;;;;;;;;5058734;28;20053;-79
2024/01/30 13:36:33;;;;;;;9.63;7.78;;;;;;;;;;5060022;28;20048;-82
2024/01/30 13:39:00;;;;;;;15.43;7.57;;;;;;;;;;5047041;28;20132;-79
2024/01/30 13:41:27;;;;;;;9.82;7.25;;;;;;;;;;5058078;28;20044;-79
2024/01/30 13:43:53;;;;;;;15.18;7.07;;;;;;;;;;5057471;28;20083;-79
2024/01/30 13:46:20;;;;;;;15.23;7.70;;;;;;;;;;5060972;28;20060;-80
2024/01/30 13:48:47;;;;;;;11.55;7.00;;;;;;;;;;5044087;28;20094;-79
2024/01/30 13:51:14;;;;;;;9.05;6.38;;;;;;;;;;5057440;28;20084;-80
2024/01/30 13:53:40;;;;;;;13.20;6.70;;;;;;;;;;5055765;28;20352;-78
2024/01/30 13:56:07;;;;;;;10.13;7.07;;;;;;;;;;5038600;28;20064;-79
2024/01/30 13:58:36;;;;;;;9.00;7.38;;;;;;;;;;5039516;28;20057;-79
2024/01/30 14:01:02;;;;;;;11.35;6.75;;;;;;;;;;5050184;28;20081;-79
2024/01/30 14:03:30;;;;;;;9.05;6.75;;;;;;;;;;5051293;28;20044;-80
2024/01/30 14:05:56;;;;;;;8.82;5.63;;;;;;;;;;5041762;28;20045;-83
2024/01/30 14:08:26;;;;;;;6.85;5.55;;;;;;;;;;5053626;28;20052;-81
2024/01/30 14:10:53;;;;;;;6.80;5.85;;;;;;;;;;5039034;28;20092;-83
2024/01/30 14:13:20;;;;;;;12.35;6.25;;;;;;;;;;5055733;28;20057;-75
2024/01/30 14:15:47;;;;;;;8.75;5.93;;;;;;;;;;5048537;28;20061;-75
2024/01/30 14:18:14;;;;;;;10.35;6.07;;;;;;;;;;5033129;28;20120;-77
2024/01/30 14:20:40;;;;;;;9.27;5.68;;;;;;;;;;5051109;28;20474;-77
2024/01/30 14:23:07;;;;;;;9.55;6.15;;;;;;;;;;5051340;28;20558;-79
2024/01/30 14:25:33;;;;;;;10.18;6.45;;;;;;;;;;5031838;28;20049;-76
2024/01/30 14:28:00;;;;;;;11.27;6.90;;;;;;;;;;5029782;28;20656;-79
2024/01/30 14:30:28;;;;;;;9.73;6.50;;;;;;;;;;5048610;28;20498;-76
2024/01/30 14:32:56;;;;;;;7.40;5.13;;;;;;;;;;5038615;28;20476;-79